Time;durP1;ratioP1;P1;durP2;ratioP2;P2;SDS_P1;SDS_P2;PMS_P1;PMS_P2;Temp;Humidity;BMP_temperature;BMP_pressure;BME280_temperature;BME280_humidity;BME280_pressure;Samples;Min_cycle;Max_cycle;Signal;HPM_P1;HPM_P2
2021/01/13 00:02:23;;;;;;;111.97;52.30;;;13.00;2201.60;;;;;;4954509;29;20047;-68
2021/01/13 00:04:49;;;;;;;105.22;51.58;;;13.00;2201.60;;;;;;4954489;28;20027;-68
2021/01/13 00:07:14;;;;;;;122.00;55.92;;;13.00;2201.60;;;;;;4936425;29;20058;-68
2021/01/13 00:09:41;;;;;;;125.57;55.03;;;13.00;2201.60;;;;;;4957813;29;20019;-68
2021/01/13 00:12:07;;;;;;;111.25;52.33;;;13.10;2201.60;;;;;;4954591;28;20094;-68
2021/01/13 00:14:34;;;;;;;126.35;55.88;;;13.10;2201.60;;;;;;4954989;28;20058;-68
2021/01/13 00:17:00;;;;;;;125.68;57.45;;;13.10;2201.60;;;;;;4954769;28;20115;-68
2021/01/13 00:19:25;;;;;;;111.93;52.60;;;13.10;2201.60;;;;;;4954618;28;20094;-66
2021/01/13 00:21:52;;;;;;;116.32;52.50;;;13.10;2201.60;;;;;;4953248;28;20384;-69
2021/01/13 00:24:19;;;;;;;99.85;50.78;;;13.00;2201.60;;;;;;4954881;28;20114;-68
2021/01/13 00:26:45;;;;;;;99.95;47.85;;;13.00;2201.60;;;;;;4953830;28;20470;-69
2021/01/13 00:29:12;;;;;;;112.10;52.85;;;13.10;2201.60;;;;;;4937612;29;20031;-68
2021/01/13 00:31:38;;;;;;;113.28;54.80;;;13.00;2201.60;;;;;;4954041;29;20520;-68
2021/01/13 00:34:08;;;;;;;130.60;62.00;;;13.00;2201.60;;;;;;4953592;28;20497;-66
2021/01/13 00:36:33;;;;;;;106.25;53.88;;;13.00;2201.60;;;;;;4930555;28;20428;-69
2021/01/13 00:38:59;;;;;;;115.85;54.60;;;13.00;2201.60;;;;;;4955156;28;20050;-69
2021/01/13 00:41:25;;;;;;;113.63;54.35;;;12.90;2201.60;;;;;;4955626;28;20031;-68
2021/01/13 00:43:53;;;;;;;116.15;54.13;;;12.90;2201.60;;;;;;4953585;28;20035;-68
2021/01/13 00:46:20;;;;;;;100.43;49.15;;;13.00;2201.60;;;;;;4952686;28;20035;-68
2021/01/13 00:48:46;;;;;;;112.80;51.40;;;13.10;2201.60;;;;;;4954034;28;20066;-68
2021/01/13 00:51:12;;;;;;;103.80;47.42;;;13.10;2201.60;;;;;;4954507;28;20027;-67
2021/01/13 00:53:37;;;;;;;116.97;52.88;;;13.10;2201.60;;;;;;4954401;28;20034;-68
2021/01/13 00:56:03;;;;;;;99.13;48.35;;;13.10;2201.60;;;;;;4953797;28;20110;-68
2021/01/13 00:58:29;;;;;;;103.32;50.00;;;13.20;2201.60;;;;;;4953524;28;20027;-68
2021/01/13 01:00:55;;;;;;;116.95;52.20;;;13.30;2201.60;;;;;;4953471;28;20066;-68
2021/01/13 01:03:21;;;;;;;109.55;52.38;;;13.30;2201.60;;;;;;4953372;28;20035;-68
2021/01/13 01:05:49;;;;;;;101.88;49.50;;;13.30;2201.60;;;;;;4950363;28;20040;-68
2021/01/13 01:08:15;;;;;;;117.85;54.45;;;13.40;2201.60;;;;;;4955391;28;20461;-67
2021/01/13 01:10:41;;;;;;;100.30;50.25;;;13.40;2201.60;;;;;;4954655;28;20481;-68
2021/01/13 01:13:07;;;;;;;109.45;52.47;;;13.40;2201.60;;;;;;4955754;28;20110;-68
2021/01/13 01:15:36;;;;;;;99.97;48.85;;;13.40;2201.60;;;;;;4953422;28;20426;-69
2021/01/13 01:18:03;;;;;;;106.07;50.10;;;13.40;2201.60;;;;;;4954824;28;20137;-68
2021/01/13 01:20:28;;;;;;;94.05;48.33;;;13.30;2201.60;;;;;;4953470;28;20043;-68
2021/01/13 01:23:00;;;;;;;83.65;44.78;;;13.30;2201.60;;;;;;4953913;28;20070;-68
2021/01/13 01:25:27;;;;;;;97.10;46.10;;;13.30;2201.60;;;;;;4953022;28;20473;-68
2021/01/13 01:27:55;;;;;;;88.80;44.47;;;13.20;2201.60;;;;;;4953073;28;20039;-68
2021/01/13 01:30:22;;;;;;;97.32;47.10;;;13.10;2201.60;;;;;;4953082;28;20380;-68
2021/01/13 01:32:49;;;;;;;84.50;44.85;;;13.10;2201.60;;;;;;4953718;28;20023;-68
2021/01/13 01:35:15;;;;;;;83.68;44.03;;;13.00;2201.60;;;;;;4951785;28;20509;-67
2021/01/13 01:37:41;;;;;;;87.45;44.58;;;13.00;2201.60;;;;;;4952522;28;20035;-68
2021/01/13 01:40:10;;;;;;;86.95;44.88;;;12.90;2201.60;;;;;;4951676;28;20104;-69
2021/01/13 01:42:36;;;;;;;86.00;44.42;;;13.00;2201.60;;;;;;4952584;28;20058;-69
2021/01/13 01:45:03;;;;;;;76.43;40.63;;;12.90;2201.60;;;;;;4953198;28;20019;-69
2021/01/13 01:48:02;;;;;;;82.68;43.63;;;12.90;2201.60;;;;;;4953814;28;20039;-68
2021/01/13 01:50:44;;;;;;;87.65;46.15;;;0.00;2201.60;;;;;;4911326;29;20103;-68
2021/01/13 01:53:30;;;;;;;76.07;41.85;;;0.00;2201.60;;;;;;4913227;29;20415;-68
2021/01/13 01:56:11;;;;;;;76.38;40.80;;;0.00;2201.60;;;;;;4912896;29;20111;-68
2021/01/13 01:58:37;;;;;;;60.78;35.35;;;12.90;2201.60;;;;;;4914136;29;20028;-68
2021/01/13 02:01:05;;;;;;;66.75;38.13;;;12.90;2201.60;;;;;;4915911;29;20508;-67
2021/01/13 02:03:53;;;;;;;62.17;36.00;;;0.00;2201.60;;;;;;4916992;29;20123;-68
2021/01/13 02:06:24;;;;;;;65.40;37.67;;;0.10;2201.60;;;;;;4914881;29;20076;-68
2021/01/13 02:08:50;;;;;;;75.63;43.90;;;0.20;2201.60;;;;;;4916954;29;20032;-67
2021/01/13 02:11:24;;;;;;;63.33;37.38;;;0.10;2201.60;;;;;;4915538;29;20446;-68
2021/01/13 02:13:50;;;;;;;58.72;35.65;;;0.10;2201.60;;;;;;4916991;29;20443;-68
2021/01/13 02:16:18;;;;;;;60.03;36.53;;;0.20;2201.60;;;;;;4918354;29;20028;-69
2021/01/13 02:18:45;;;;;;;67.97;40.13;;;0.20;2201.60;;;;;;4917913;29;20076;-69
2021/01/13 02:21:15;;;;;;;60.63;36.25;;;0.10;2201.60;;;;;;4913438;29;20149;-68
2021/01/13 02:23:58;;;;;;;70.47;40.35;;;0.20;2201.60;;;;;;4917369;29;20036;-68
2021/01/13 02:27:02;;;;;;;63.83;38.97;;;0.20;2201.60;;;;;;4901384;29;20431;-68
2021/01/13 02:29:30;;;;;;;54.75;31.83;;;0.30;2201.60;;;;;;4956320;28;20031;-68
2021/01/13 02:31:58;;;;;;;57.67;34.70;;;0.40;2201.60;;;;;;4954951;28;20378;-68
2021/01/13 02:34:42;;;;;;;57.97;33.42;;;0.20;2201.60;;;;;;4956973;28;20074;-68
2021/01/13 02:37:41;;;;;;;57.90;34.22;;;0.20;2201.60;;;;;;4954278;28;20031;-67
2021/01/13 02:40:16;;;;;;;63.10;35.28;;;0.20;2201.60;;;;;;4955315;28;20032;-68
2021/01/13 02:42:55;;;;;;;49.85;30.50;;;0.10;2201.60;;;;;;4955801;28;20042;-68
2021/01/13 02:45:23;;;;;;;43.53;27.52;;;0.10;2201.60;;;;;;4955893;28;20050;-67
2021/01/13 02:47:57;;;;;;;50.13;28.70;;;0.10;2201.60;;;;;;4957019;28;20114;-68
2021/01/13 02:50:29;;;;;;;52.42;30.80;;;0.10;2201.60;;;;;;4954099;28;20023;-68
2021/01/13 02:53:13;;;;;;;49.78;29.85;;;0.10;2201.60;;;;;;4956564;28;20401;-68
2021/01/13 02:56:04;;;;;;;46.50;27.90;;;0.20;2201.60;;;;;;4938723;29;20538;-68
2021/01/13 02:58:29;;;;;;;53.33;30.60;;;0.20;2201.60;;;;;;4945549;28;20065;-68
2021/01/13 03:00:56;;;;;;;51.75;30.50;;;0.20;2201.60;;;;;;4955151;28;20026;-67
2021/01/13 03:03:22;;;;;;;45.40;27.48;;;13.00;2201.60;;;;;;4955655;28;20047;-69
2021/01/13 03:05:48;;;;;;;59.20;32.05;;;0.10;2201.60;;;;;;4954667;28;20110;-69
2021/01/13 03:08:14;;;;;;;107.20;48.92;;;0.10;2201.60;;;;;;4948666;28;20114;-69
2021/01/13 03:10:42;;;;;;;74.45;40.22;;;0.20;2201.60;;;;;;4955694;28;20046;-68
2021/01/13 03:13:08;;;;;;;51.53;31.10;;;0.20;2201.60;;;;;;4938326;29;20481;-67
2021/01/13 03:15:36;;;;;;;64.72;36.72;;;0.20;2201.60;;;;;;4955698;28;20038;-68
2021/01/13 03:18:28;;;;;;;45.50;27.83;;;0.20;2201.60;;;;;;4956080;28;20031;-68
2021/01/13 03:21:08;;;;;;;50.78;30.20;;;0.20;2201.60;;;;;;4953369;28;20031;-68
2021/01/13 03:23:49;;;;;;;47.85;27.80;;;0.10;2201.60;;;;;;4955862;28;20043;-67
2021/01/13 03:26:24;;;;;;;46.92;26.98;;;0.00;2201.60;;;;;;4955464;28;20093;-68
2021/01/13 03:28:50;;;;;;;46.28;26.90;;;0.00;2201.60;;;;;;4956435;28;20438;-68
2021/01/13 03:31:24;;;;;;;45.65;27.55;;;0.10;2201.60;;;;;;4954909;28;20062;-68
2021/01/13 03:34:24;;;;;;;55.00;31.80;;;0.20;2201.60;;;;;;4955319;28;20049;-68
2021/01/13 03:37:06;;;;;;;55.95;32.55;;;0.20;2201.60;;;;;;4950597;28;20421;-69
2021/01/13 03:39:35;;;;;;;55.30;31.88;;;0.20;2201.60;;;;;;4955857;28;20031;-68
2021/01/13 03:42:14;;;;;;;66.95;36.83;;;0.40;2201.60;;;;;;4955073;28;20035;-68
2021/01/13 03:44:44;;;;;;;74.53;39.95;;;0.40;2201.60;;;;;;4955495;28;20024;-68
2021/01/13 03:47:15;;;;;;;63.03;35.70;;;0.50;2201.60;;;;;;4954494;28;20159;-68
2021/01/13 03:49:51;;;;;;;54.17;31.85;;;0.50;2201.60;;;;;;4955480;28;20131;-68
2021/01/13 03:52:17;;;;;;;49.13;29.55;;;0.40;2201.60;;;;;;4954781;28;20039;-68
2021/01/13 03:54:44;;;;;;;53.00;32.10;;;0.50;2201.60;;;;;;4955795;28;20027;-68
2021/01/13 03:57:10;;;;;;;57.50;32.90;;;0.40;2201.60;;;;;;4954189;28;20089;-67
2021/01/13 03:59:42;;;;;;;60.08;35.15;;;0.50;2201.60;;;;;;4955944;28;20027;-68
2021/01/13 04:02:09;;;;;;;50.00;29.95;;;0.50;2201.60;;;;;;4954173;28;20031;-68
2021/01/13 04:04:49;;;;;;;40.97;26.13;;;0.50;2201.60;;;;;;4936440;29;20027;-67
2021/01/13 04:07:16;;;;;;;48.75;29.00;;;0.50;2201.60;;;;;;4952887;28;20042;-68
2021/01/13 04:09:42;;;;;;;51.00;31.38;;;0.50;2201.60;;;;;;4955352;28;20504;-68
2021/01/13 04:12:14;;;;;;;53.45;31.95;;;0.50;2201.60;;;;;;4954548;28;20086;-67
2021/01/13 04:14:55;;;;;;;53.50;31.98;;;0.40;2201.60;;;;;;4955167;28;20027;-68
2021/01/13 04:17:28;;;;;;;55.50;32.03;;;0.40;2201.60;;;;;;4953881;28;20028;-68
2021/01/13 04:19:55;;;;;;;58.30;34.42;;;0.40;2201.60;;;;;;4954817;28;20035;-68
2021/01/13 04:22:25;;;;;;;53.22;31.88;;;0.30;2201.60;;;;;;4954740;28;20035;-68
2021/01/13 04:24:53;;;;;;;43.78;26.70;;;0.30;2201.60;;;;;;4957473;28;20118;-75
2021/01/13 04:27:19;;;;;;;50.30;32.67;;;0.30;2201.60;;;;;;4954160;28;20027;-68
2021/01/13 04:29:46;;;;;;;53.15;32.58;;;0.30;2201.60;;;;;;4954887;28;20036;-67
2021/01/13 04:32:13;;;;;;;47.70;30.00;;;0.30;2201.60;;;;;;4954210;28;20027;-68
2021/01/13 04:34:40;;;;;;;47.05;28.92;;;0.40;2201.60;;;;;;4929573;28;20043;-68
2021/01/13 04:37:07;;;;;;;41.75;25.48;;;0.40;2201.60;;;;;;4951615;28;20031;-68
2021/01/13 04:39:34;;;;;;;40.75;25.73;;;0.40;2201.60;;;;;;4954926;28;20473;-68
2021/01/13 04:42:02;;;;;;;48.05;30.88;;;0.40;2201.60;;;;;;4953072;28;20114;-69
2021/01/13 04:44:42;;;;;;;44.60;28.40;;;0.40;2201.60;;;;;;4955646;28;20048;-69
2021/01/13 04:47:09;;;;;;;46.72;28.10;;;0.40;2201.60;;;;;;4954031;28;20023;-68
2021/01/13 04:49:36;;;;;;;50.70;31.30;;;0.50;2201.60;;;;;;4954048;28;20030;-70
2021/01/13 04:52:11;;;;;;;53.25;31.05;;;0.50;2201.60;;;;;;4953631;28;20038;-68
2021/01/13 04:54:38;;;;;;;48.05;29.48;;;0.50;2201.60;;;;;;4954603;28;20134;-67
2021/01/13 04:57:04;;;;;;;51.03;30.00;;;0.60;2201.60;;;;;;4953760;28;20106;-68
2021/01/13 04:59:44;;;;;;;50.92;28.73;;;0.50;2201.60;;;;;;4954062;28;20111;-68
2021/01/13 05:02:11;;;;;;;50.03;30.65;;;0.50;2201.60;;;;;;4953497;28;20031;-68
2021/01/13 05:04:56;;;;;;;54.90;30.52;;;0.60;2201.60;;;;;;4953300;28;20031;-68
2021/01/13 05:07:29;;;;;;;54.03;31.48;;;0.60;2201.60;;;;;;4952343;28;20023;-66
2021/01/13 05:10:10;;;;;;;53.15;31.58;;;0.70;2201.60;;;;;;4955183;28;20373;-68
2021/01/13 05:12:55;;;;;;;57.85;31.98;;;0.70;2201.60;;;;;;4935533;28;20039;-69
2021/01/13 05:15:22;;;;;;;54.45;30.75;;;0.70;2201.60;;;;;;4963985;28;20159;-70
2021/01/13 05:18:08;;;;;;;67.28;35.55;;;0.60;2201.60;;;;;;4958579;28;20043;-68
2021/01/13 05:20:41;;;;;;;70.30;39.75;;;0.60;2201.60;;;;;;4953788;28;20070;-68
2021/01/13 05:23:10;;;;;;;63.63;36.15;;;0.60;2201.60;;;;;;4954036;28;20125;-68
2021/01/13 05:25:51;;;;;;;63.00;35.80;;;0.60;2201.60;;;;;;4954283;28;20106;-68
2021/01/13 05:28:27;;;;;;;52.70;31.38;;;0.60;2201.60;;;;;;4953970;28;20541;-68
2021/01/13 05:30:57;;;;;;;52.45;31.33;;;0.60;2201.60;;;;;;4941523;28;20027;-70
2021/01/13 05:33:31;;;;;;;44.50;29.02;;;0.60;2201.60;;;;;;4934764;28;20062;-69
2021/01/13 05:36:01;;;;;;;44.13;26.40;;;0.40;2201.60;;;;;;4933510;28;20054;-73
2021/01/13 05:38:55;;;;;;;40.28;25.45;;;0.60;2201.60;;;;;;4918929;28;20027;-69
2021/01/13 05:41:21;;;;;;;39.40;25.05;;;0.60;2201.60;;;;;;4916862;28;20031;-68
2021/01/13 05:43:49;;;;;;;37.55;24.27;;;0.60;2201.60;;;;;;4915357;28;20090;-68
2021/01/13 05:46:17;;;;;;;38.80;25.15;;;0.50;2201.60;;;;;;4915735;28;20032;-71
2021/01/13 05:48:53;;;;;;;39.95;24.13;;;0.80;2201.60;;;;;;4918368;28;20035;-73
2021/01/13 05:51:29;;;;;;;46.30;27.00;;;0.60;2201.60;;;;;;4919032;28;20059;-70
2021/01/13 05:53:55;;;;;;;52.75;32.50;;;0.60;2201.60;;;;;;4929331;28;20031;-68
2021/01/13 05:56:22;;;;;;;67.30;40.50;;;0.80;2201.60;;;;;;4955618;28;20358;-76
2021/01/13 05:59:00;;;;;;;60.60;37.85;;;0.60;2201.60;;;;;;4952685;28;20041;-72
2021/01/13 06:01:59;;;;;;;46.85;30.23;;;0.60;2201.60;;;;;;4934255;28;20023;-72
2021/01/13 06:04:26;;;;;;;50.03;31.98;;;0.60;2201.60;;;;;;4920704;28;20576;-70
2021/01/13 06:07:05;;;;;;;65.75;39.70;;;0.70;2201.60;;;;;;4931037;28;20765;-71
2021/01/13 06:09:39;;;;;;;55.33;32.90;;;0.10;2201.60;;;;;;4919063;28;20113;-68
2021/01/13 06:12:06;;;;;;;55.17;32.25;;;0.70;2201.60;;;;;;4927191;28;20073;-70
2021/01/13 06:14:34;;;;;;;57.33;32.97;;;0.60;2201.60;;;;;;4921601;28;20042;-69
2021/01/13 06:17:04;;;;;;;59.42;33.75;;;0.70;2201.60;;;;;;4920369;28;20625;-68
2021/01/13 06:19:30;;;;;;;52.80;33.45;;;0.80;2201.60;;;;;;4916570;28;20039;-69
2021/01/13 06:22:11;;;;;;;63.30;37.72;;;0.80;2201.60;;;;;;4916986;28;20159;-69
2021/01/13 06:24:37;;;;;;;69.20;41.42;;;0.90;2201.60;;;;;;4916386;28;20476;-69
2021/01/13 06:27:19;;;;;;;72.30;43.00;;;25.60;2201.60;;;;;;4907184;28;20436;-69
2021/01/13 06:29:50;;;;;;;84.95;48.50;;;0.90;2201.60;;;;;;4916286;28;20034;-69
2021/01/13 06:32:18;;;;;;;84.88;50.55;;;0.80;2201.60;;;;;;4915542;28;20623;-68
2021/01/13 06:35:15;;;;;;;74.30;46.05;;;0.80;2201.60;;;;;;4916146;28;20449;-69
2021/01/13 06:37:48;;;;;;;82.43;46.63;;;0.90;2201.60;;;;;;4915755;28;20123;-69
2021/01/13 06:40:16;;;;;;;80.53;48.42;;;25.60;2201.60;;;;;;4916508;28;20023;-68
2021/01/13 06:42:42;;;;;;;74.00;44.38;;;25.60;2201.60;;;;;;4916341;28;20149;-69
2021/01/13 06:45:09;;;;;;;76.07;42.95;;;25.70;2201.60;;;;;;4918612;28;20556;-68
2021/01/13 06:47:35;;;;;;;76.43;44.03;;;25.60;2201.60;;;;;;4918483;28;20621;-68
2021/01/13 06:50:01;;;;;;;81.45;47.38;;;25.60;2201.60;;;;;;4910745;28;20019;-68
2021/01/13 06:52:33;;;;;;;76.13;45.70;;;25.60;2201.60;;;;;;4919028;28;20042;-68
2021/01/13 06:55:00;;;;;;;74.25;42.05;;;0.90;2201.60;;;;;;4924850;28;20476;-69
2021/01/13 06:57:30;;;;;;;80.40;47.22;;;25.70;2201.60;;;;;;4917902;28;20483;-68
2021/01/13 06:59:58;;;;;;;75.10;43.63;;;25.80;2201.60;;;;;;4915804;28;20031;-69
2021/01/13 07:02:35;;;;;;;73.25;42.47;;;25.70;2201.60;;;;;;4914365;28;20165;-68
2021/01/13 07:05:01;;;;;;;81.95;46.55;;;26.00;2201.60;;;;;;4916939;28;20040;-67
2021/01/13 07:07:29;;;;;;;72.47;42.15;;;25.70;2201.60;;;;;;4915292;28;20074;-67
2021/01/13 07:09:55;;;;;;;89.25;50.15;;;25.60;2201.60;;;;;;4921421;28;20415;-68
2021/01/13 07:12:23;;;;;;;137.95;85.97;;;25.70;2201.60;;;;;;4954605;28;20079;-72
2021/01/13 07:14:53;;;;;;;95.30;57.80;;;25.80;2201.60;;;;;;4977083;28;20039;-69
2021/01/13 07:17:21;;;;;;;80.97;45.05;;;25.70;2201.60;;;;;;4959954;28;20521;-71
2021/01/13 07:19:54;;;;;;;79.75;43.20;;;25.90;2201.60;;;;;;4925341;28;20050;-69
2021/01/13 07:22:22;;;;;;;71.75;41.47;;;25.80;2201.60;;;;;;4920134;28;20051;-70
2021/01/13 07:24:49;;;;;;;82.53;45.97;;;25.80;2201.60;;;;;;4918271;28;20044;-70
2021/01/13 07:27:16;;;;;;;68.13;39.50;;;26.00;2201.60;;;;;;4919610;28;20117;-68
2021/01/13 07:29:42;;;;;;;68.50;39.90;;;25.80;2201.60;;;;;;4923390;28;20038;-76
2021/01/13 07:32:09;;;;;;;63.10;37.13;;;25.70;2201.60;;;;;;4956904;28;20016;-73
2021/01/13 07:34:41;;;;;;;59.67;32.85;;;25.60;2201.60;;;;;;4973556;28;20106;-71
2021/01/13 07:37:25;;;;;;;59.90;33.88;;;25.90;2201.60;;;;;;4946357;29;20055;-71
2021/01/13 07:39:59;;;;;;;53.08;32.28;;;25.70;2201.60;;;;;;4973592;28;20027;-78
2021/01/13 07:42:43;;;;;;;56.70;32.22;;;25.80;2201.60;;;;;;4948825;28;20473;-72
2021/01/13 07:45:15;;;;;;;62.90;33.70;;;25.90;2201.60;;;;;;4915809;28;20123;-72
2021/01/13 07:47:47;;;;;;;83.82;48.88;;;26.00;2201.60;;;;;;4915508;28;20125;-69
2021/01/13 07:50:13;;;;;;;75.97;41.58;;;25.80;2201.60;;;;;;4897071;29;20059;-73
2021/01/13 07:53:03;;;;;;;67.72;37.53;;;26.10;2201.60;;;;;;4915948;28;20039;-69
2021/01/13 07:55:30;;;;;;;73.10;42.13;;;26.40;2201.60;;;;;;4911228;28;20038;-72
2021/01/13 07:57:57;;;;;;;71.65;40.67;;;26.40;2201.60;;;;;;4918877;28;20031;-69
2021/01/13 08:00:27;;;;;;;71.18;40.63;;;51.30;2227.20;;;;;;4915669;28;20611;-70
2021/01/13 08:03:17;;;;;;;60.50;34.72;;;51.80;2227.20;;;;;;4908995;28;20050;-70
2021/01/13 08:06:29;;;;;;;63.63;37.33;;;51.80;2227.20;;;;;;4913489;28;20357;-70
2021/01/13 08:09:07;;;;;;;65.43;40.75;;;52.10;2227.20;;;;;;4910900;28;20070;-68
2021/01/13 08:11:52;;;;;;;66.88;43.35;;;52.10;2227.20;;;;;;4911535;28;20024;-68
2021/01/13 08:14:20;;;;;;;57.08;33.25;;;52.00;2227.20;;;;;;4907561;28;20105;-69
2021/01/13 08:17:26;;;;;;;66.05;39.92;;;51.90;2227.20;;;;;;4918862;28;20117;-69
2021/01/13 08:20:02;;;;;;;59.80;36.35;;;76.80;2227.20;;;;;;4872316;29;20049;-69
2021/01/13 08:22:29;;;;;;;61.38;35.17;;;77.30;2227.20;;;;;;4869373;29;20545;-69
2021/01/13 08:25:12;;;;;;;63.72;35.33;;;77.30;2201.60;;;;;;4876204;29;20143;-69
2021/01/13 08:27:39;;;;;;;54.25;32.97;;;77.40;2227.20;;;;;;4875212;29;20043;-69
2021/01/13 08:30:06;;;;;;;48.50;29.77;;;77.40;2227.20;;;;;;4874839;29;20243;-68
2021/01/13 08:32:42;;;;;;;53.10;31.05;;;77.50;2176.00;;;;;;4876686;29;20035;-75
2021/01/13 08:35:09;;;;;;;52.35;30.70;;;77.50;2150.40;;;;;;4875665;29;20498;-75
2021/01/13 08:37:35;;;;;;;55.75;32.33;;;77.40;2176.00;;;;;;4886349;29;20600;-76
2021/01/13 08:40:25;;;;;;;55.42;33.95;;;76.90;2201.60;;;;;;4878423;29;20312;-71
2021/01/13 08:43:08;;;;;;;64.57;40.40;;;77.00;2201.60;;;;;;4864593;29;20048;-72
2021/01/13 08:45:37;;;;;;;74.68;43.63;;;77.00;2227.20;;;;;;4868084;29;20614;-69
2021/01/13 08:48:09;;;;;;;58.75;35.30;;;76.80;2227.20;;;;;;4875624;29;20143;-70
2021/01/13 08:50:36;;;;;;;60.80;35.28;;;76.80;2227.20;;;;;;4875145;29;20112;-69
2021/01/13 08:53:03;;;;;;;56.58;35.53;;;52.10;2227.20;;;;;;4877731;29;20576;-69
2021/01/13 08:55:30;;;;;;;61.67;34.75;;;76.80;2227.20;;;;;;4879607;29;20046;-72
2021/01/13 08:58:05;;;;;;;58.17;33.13;;;52.10;2227.20;;;;;;4914261;28;20543;-70
2021/01/13 09:00:33;;;;;;;56.80;34.05;;;52.10;2227.20;;;;;;4915300;28;20110;-69
2021/01/13 09:03:25;;;;;;;61.35;37.58;;;52.00;2227.20;;;;;;4919318;28;20035;-70
2021/01/13 09:05:56;;;;;;;62.28;35.85;;;51.90;2227.20;;;;;;4921873;28;20027;-71
2021/01/13 09:08:31;;;;;;;61.90;37.97;;;52.10;2227.20;;;;;;4921021;28;20027;-70
2021/01/13 09:10:58;;;;;;;55.28;35.20;;;77.20;2227.20;;;;;;4907374;28;20380;-69
2021/01/13 09:13:29;;;;;;;62.30;36.90;;;102.50;2176.00;;;;;;4917362;28;20035;-70
2021/01/13 09:15:56;;;;;;;62.63;37.55;;;77.60;2227.20;;;;;;4915711;28;20031;-69
2021/01/13 09:18:23;;;;;;;63.72;39.78;;;102.40;2176.00;;;;;;4912104;28;20207;-69
2021/01/13 09:20:49;;;;;;;57.85;35.55;;;102.40;2176.00;;;;;;4908637;28;20523;-70
2021/01/13 09:23:25;;;;;;;64.20;37.58;;;102.50;2176.00;;;;;;4902028;28;20515;-69
2021/01/13 09:25:56;;;;;;;58.13;35.95;;;102.60;2176.00;;;;;;4916340;28;20871;-70
2021/01/13 09:28:22;;;;;;;60.70;35.85;;;102.80;2124.80;;;;;;4916970;28;20027;-67
2021/01/13 09:30:48;;;;;;;54.15;35.42;;;103.20;2099.20;;;;;;4917087;28;20039;-69
2021/01/13 09:33:18;;;;;;;69.85;44.20;;;102.60;2073.60;;;;;;4912902;28;20034;-77
2021/01/13 09:35:57;;;;;;;61.88;40.17;;;102.60;2150.40;;;;;;4937741;28;20497;-80
2021/01/13 09:38:33;;;;;;;66.72;43.47;;;102.60;2124.80;;;;;;4899116;29;20042;-73
2021/01/13 09:41:02;;;;;;;828.90;424.65;;;102.70;2150.40;;;;;;4914367;28;20237;-73
2021/01/13 09:43:36;;;;;;;144.60;75.50;;;128.20;2124.80;;;;;;4886506;29;20051;-71
2021/01/13 09:46:28;;;;;;;96.95;52.50;;;103.00;2073.60;;;;;;4914268;28;20068;-70
2021/01/13 09:49:09;;;;;;;80.57;52.78;;;103.00;2073.60;;;;;;4914899;28;20050;-71
2021/01/13 09:51:38;;;;;;;68.03;43.33;;;102.80;2124.80;;;;;;4912223;28;20110;-72
2021/01/13 09:54:07;;;;;;;63.92;42.50;;;102.80;2099.20;;;;;;4911198;28;20452;-78
2021/01/13 09:56:36;;;;;;;66.60;42.25;;;102.70;2124.80;;;;;;4919258;28;21008;-75
2021/01/13 09:59:07;;;;;;;81.97;51.78;;;102.50;2124.80;;;;;;4915170;28;20035;-80
2021/01/13 10:01:38;;;;;;;63.35;41.00;;;102.50;2099.20;;;;;;4910722;28;20109;-77
2021/01/13 10:04:12;;;;;;;67.75;42.88;;;102.50;2124.80;;;;;;4898066;29;20313;-77
2021/01/13 10:06:44;;;;;;;66.75;43.33;;;102.40;2150.40;;;;;;4917253;28;21336;-77
2021/01/13 10:09:17;;;;;;;63.13;41.47;;;102.40;2176.00;;;;;;4916632;28;20683;-72
2021/01/13 10:11:43;;;;;;;66.75;40.22;;;77.70;2201.60;;;;;;4910769;28;20147;-71
2021/01/13 10:14:10;;;;;;;60.75;38.33;;;102.40;2201.60;;;;;;4911720;28;20043;-71
2021/01/13 10:16:43;;;;;;;65.05;41.50;;;76.90;2227.20;;;;;;4910826;28;20051;-70
2021/01/13 10:19:10;;;;;;;;;;;77.50;2201.60;;;;;;4910127;28;20471;-71
2021/01/13 10:21:40;;;;;;;53.42;34.97;;;77.30;2227.20;;;;;;4918245;28;19914;-76
2021/01/13 10:24:11;;;;;;;61.72;39.85;;;77.50;2227.20;;;;;;4923458;28;20031;-70
2021/01/13 10:26:41;;;;;;;57.13;36.70;;;77.60;2201.60;;;;;;4925528;28;20547;-70
2021/01/13 10:29:09;;;;;;;53.72;34.33;;;77.40;2227.20;;;;;;4892750;28;20031;-71
2021/01/13 10:31:36;;;;;;;53.03;32.67;;;77.50;2201.60;;;;;;4918003;28;20082;-71
2021/01/13 10:34:02;;;;;;;48.45;32.92;;;77.40;2227.20;;;;;;4915454;28;20031;-71
2021/01/13 10:36:31;;;;;;;52.60;32.53;;;77.30;2227.20;;;;;;4917312;28;20035;-70
2021/01/13 10:39:13;;;;;;;48.80;32.47;;;77.10;2227.20;;;;;;4915096;28;20607;-71
2021/01/13 10:41:42;;;;;;;49.30;30.73;;;77.00;2227.20;;;;;;4918131;28;20532;-75
2021/01/13 10:44:10;;;;;;;47.60;31.27;;;77.00;2227.20;;;;;;4968846;23;20656;-71
2021/01/13 10:46:42;;;;;;;42.97;29.67;;;76.90;2227.20;;;;;;4897714;29;20027;-74
2021/01/13 10:49:17;;;;;;;48.03;30.42;;;77.00;2227.20;;;;;;4906841;29;20024;-71
2021/01/13 10:51:47;;;;;;;48.08;30.25;;;77.00;2227.20;;;;;;4887951;29;20063;-85
2021/01/13 10:54:17;;;;;;;43.70;29.02;;;77.00;2227.20;;;;;;4954552;28;20040;-72
2021/01/13 10:56:45;;;;;;;41.45;28.08;;;77.00;2227.20;;;;;;4929230;29;20501;-73
2021/01/13 10:59:15;;;;;;;45.30;27.52;;;76.90;2227.20;;;;;;4942406;28;20071;-75
2021/01/13 11:01:48;;;;;;;38.97;25.40;;;77.00;2227.20;;;;;;4937962;28;20024;-73
2021/01/13 11:04:24;;;;;;;43.25;26.38;;;76.90;2227.20;;;;;;4940683;28;20036;-72
2021/01/13 11:06:55;;;;;;;37.42;25.42;;;76.90;2227.20;;;;;;4928681;28;20042;-73
2021/01/13 11:09:22;;;;;;;37.08;24.92;;;76.90;2227.20;;;;;;4909880;29;20643;-71
2021/01/13 11:11:48;;;;;;;38.95;25.13;;;76.90;2227.20;;;;;;4900247;29;20036;-69
2021/01/13 11:14:14;;;;;;;36.55;25.08;;;76.90;2227.20;;;;;;4898646;29;20042;-69
2021/01/13 11:17:04;;;;;;;37.95;24.33;;;76.80;2227.20;;;;;;4896067;29;20521;-69
2021/01/13 11:19:30;;;;;;;31.77;21.90;;;76.90;2227.20;;;;;;4889914;29;20523;-70
2021/01/13 11:22:00;;;;;;;30.27;20.17;;;102.70;2227.20;;;;;;4891418;29;20066;-70
2021/01/13 11:24:30;;;;;;;30.35;19.88;;;77.50;2227.20;;;;;;4930964;29;20012;-72
2021/01/13 11:27:01;;;;;;;31.27;19.92;;;77.10;2227.20;;;;;;4952533;28;20019;-71
2021/01/13 11:29:34;;;;;;;27.98;19.30;;;77.20;2227.20;;;;;;4917230;29;20473;-74
2021/01/13 11:32:04;;;;;;;26.45;16.63;;;77.00;2176.00;;;;;;4910736;29;20484;-75
2021/01/13 11:34:30;;;;;;;25.45;16.83;;;77.20;2176.00;;;;;;4896933;29;20143;-76
2021/01/13 11:37:08;;;;;;;26.38;17.02;;;77.20;2176.00;;;;;;4927673;28;20068;-71
2021/01/13 11:39:49;;;;;;;24.95;15.68;;;77.20;2150.40;;;;;;4932694;29;20024;-70
2021/01/13 11:42:54;;;;;;;26.15;15.65;;;77.20;2124.80;;;;;;4921219;29;20051;-72
2021/01/13 11:45:28;;;;;;;21.77;14.10;;;77.30;2176.00;;;;;;4865043;29;20346;-71
2021/01/13 11:47:55;;;;;;;24.38;16.25;;;77.20;2150.40;;;;;;4869039;29;20559;-71
2021/01/13 11:50:23;;;;;;;31.60;20.40;;;77.30;2150.40;;;;;;4849561;29;20704;-71
2021/01/13 11:52:57;;;;;;;25.13;15.88;;;77.30;2124.80;;;;;;4845421;29;20504;-71
2021/01/13 11:55:30;;;;;;;25.85;17.05;;;77.30;2099.20;;;;;;4837873;29;20049;-71
2021/01/13 11:57:57;;;;;;;44.93;27.03;;;77.10;2150.40;;;;;;4838389;29;20032;-72
2021/01/13 12:00:28;;;;;;;29.38;17.10;;;77.10;2150.40;;;;;;4846154;29;20061;-80
2021/01/13 12:02:59;;;;;;;26.50;17.83;;;77.10;2150.40;;;;;;4879963;29;20171;-71
2021/01/13 12:05:35;;;;;;;22.75;15.70;;;77.00;2150.40;;;;;;4857517;29;20037;-71
2021/01/13 12:08:03;;;;;;;25.83;17.30;;;76.90;2124.80;;;;;;4836518;29;20568;-71
2021/01/13 12:10:31;;;;;;;26.85;15.38;;;76.80;2150.40;;;;;;4836920;29;20706;-71
2021/01/13 12:13:18;;;;;;;26.98;17.17;;;76.80;2150.40;;;;;;4838706;29;20036;-71
2021/01/13 12:16:02;;;;;;;22.15;14.65;;;51.60;2176.00;;;;;;4839945;29;20045;-71
2021/01/13 12:18:34;;;;;;;22.70;14.77;;;76.80;2150.40;;;;;;4840544;29;20729;-72
2021/01/13 12:21:23;;;;;;;22.02;13.57;;;51.80;2150.40;;;;;;4839009;29;20048;-71
2021/01/13 12:23:50;;;;;;;21.30;14.50;;;76.80;2124.80;;;;;;4868650;29;20507;-71
2021/01/13 12:26:22;;;;;;;29.55;19.75;;;102.40;2124.80;;;;;;4879038;29;20590;-71
2021/01/13 12:28:50;;;;;;;31.80;19.08;;;76.90;2150.40;;;;;;4879804;29;20099;-71
2021/01/13 12:31:21;;;;;;;29.60;18.13;;;77.00;2176.00;;;;;;4881999;29;20035;-76
2021/01/13 12:33:57;;;;;;;26.05;16.02;;;77.00;2176.00;;;;;;4867739;29;20028;-70
2021/01/13 12:36:25;;;;;;;23.25;14.68;;;77.00;2150.40;;;;;;4866708;29;20032;-70